Terminal Aerodrome Forecast
Issued by NWS

Home | Current Version | Previous Version | Text Only | Print | Product List | Glossary Off
Versions: 1 2 3 4 5 6 7 8 9 10 11 12 13 14 15 16 17

000
FTUS43 KGRB 121400 AAA
TAFMTW
TAF AMD
KMTW 121457Z 1215/1312 35006KT P6SM BKN100
     FM121700 35008KT P6SM -SHRA BKN040 OVC080
     FM130000 33006KT 5SM -RA BR BKN030 OVC060
     FM130800 31004KT 6SM BR VCSH OVC025
     FM131100 30004KT P6SM SCT035 SCT060=

USA.gov is the U.S. government's official web portal to all federal, state and local government web resources and services.